x

North Equatorial One- 470 Nm East Of Martinique (41040) Wave Buoy

12:50am - Sat 20th Dec 2014 All times are UTC.

  • Sig Wave height 5.9ft
  • Swell Direction
  • Peak Period 9s
  • Average Period 7s
  • Wind
    13mph, 16mph gusts
  • Sea Temp 81°f
  • Air Temp 80°f
  • Sea Pressure 1015.2mb

More Historic Weather Station data

Upgrade to MSW Pro to gain access to the past 30 days of data for over 8000 Wavebouys and Weather Stations around the globe.

Join Pro

Comparision Forecast

View Surf forecast
   
Sat 12/20 12:50am 6ft 9s 7s 13 16 mph 1015.2mb 81f 80f
Fri 12/19 11:50pm 6ft 9s 7s 13 18 mph 1015mb 81f 79f
10:50pm 6ft 9s 7s 13 16 mph 1014.7mb 81f 80f
9:50pm 6ft 9s 7s 11 13 mph 1013.9mb 81f 79f
8:50pm 6ft 10s 7s 11 13 mph 1013.6mb 81f 80f
7:50pm 5.5ft 9s 7s 11 13 mph 1013.2mb 81f 80f
6:50pm 6ft 10s 7s 11 13 mph 1013mb 81f 79f
5:50pm 6ft 10s 7s 11 13 mph 1013.1mb 81f 79f
4:50pm 6ft 10s 7s 11 16 mph 1013.6mb 81f 79f
3:50pm 6ft 10s 7s 13 16 mph 1014.1mb 81f 79f
2:50pm 6ft 11s 7s 13 16 mph 1014.8mb 81f 79f
1:50pm 6ft 10s 7s 13 16 mph 1014.9mb 81f 79f
11:50am 6ft 10s 8s 13 16 mph 1014.4mb 81f 79f
10:50am 6ft 9s 8s 11 13 mph 1013.6mb 80f 79f
9:50am 5.5ft 10s 8s 11 13 mph 1012.9mb 80f 78f
8:50am 6.5ft 10s 8s 11 13 mph 1012.6mb 80f 78f
7:50am 6.5ft 10s 8s 11 13 mph 1012.6mb 81f 78f
6:50am 6ft 10s 8s 9 11 mph 1012.5mb 81f 78f
5:50am 6.5ft 10s 8s 9 11 mph 1012.7mb 81f 79f
4:50am 6ft 10s 8s 9 11 mph 1013.2mb 81f 78f
3:50am 6ft 10s 8s 9 11 mph 1013.7mb 80f 78f
2:50am 6.5ft 10s 8s 7 9 mph 1014.1mb 80f 79f
1:50am 6ft 10s 8s 7 9 mph 1014.4mb 80f 79f
12:50am 6ft 10s 8s 9 11 mph 1014.4mb 81f 79f
Thu 12/18 11:50pm 6ft 10s 8s 11 13 mph 1014.4mb 81f 79f
10:50pm 5.5ft 10s 7s 9 11 mph 1014.2mb 81f 79f
9:50pm 6ft 10s 8s 9 11 mph 1013.7mb 81f 79f
8:50pm 6ft 10s 7s 9 11 mph 1013.5mb 81f 79f
7:50pm 6ft 10s 7s 9 11 mph 1013.1mb 81f 80f
6:50pm 7ft 10s 8s 9 11 mph 1012.9mb 81f 80f
5:50pm 6.5ft 9s 7s 11 13 mph 1013.1mb 81f 79f
4:50pm 6ft 11s 7s 11 13 mph 1013.7mb 81f 80f
3:50pm 6.5ft 10s 8s 11 13 mph 1014.3mb 81f 80f
2:50pm 6ft 10s 7s 11 13 mph 1015.1mb 81f 80f
1:50pm 6.5ft 10s 8s 13 16 mph 1015.5mb 81f 79f
12:50pm 6ft 10s 8s 11 16 mph 1015.4mb 81f 79f
11:50am 6ft 8s 7s 11
mph
1015.1mb 81f 79f
10:50am 5.5ft 9s 8s 9 11 mph 1014.4mb 81f 79f
9:50am 6ft 9s 7s 9 11 mph 1013.7mb 80f 79f
8:50am 5.5ft 10s 7s 9 11 mph 1013.2mb 81f 78f
7:50am 6ft 10s 8s 11 13 mph 1012.8mb 81f 79f
6:50am 6ft 8s 7s 9 11 mph 1012.8mb 81f 79f
5:50am 5.5ft 9s 7s 9 11 mph 1013.3mb 81f 79f
4:50am 6.5ft 10s 8s 9 11 mph 1014mb 81f 79f
3:50am 5.5ft 10s 7s 7 9 mph 1014.6mb 81f 79f
2:50am 6ft 10s 7s 9 11 mph 1015mb 81f 79f
1:50am 5ft 11s 7s 9 11 mph 1015.6mb 81f 79f
12:50am 5.5ft 11s 7s 9 11 mph 1015.4mb 81f 79f
Wed 12/17 11:50pm 6ft 11s 7s 9
mph
1015.2mb 81f 80f
10:50pm 5.5ft 10s 7s 7 9 mph 1014.9mb 81f 80f
9:50pm 5ft 8s 7s 7 9 mph 1014.5mb 81f 80f
8:50pm 5.5ft 9s 7s 7 9 mph 1014.1mb 82f 80f
7:50pm 5ft 9s 7s 9 11 mph 1013.3mb 82f 80f
6:50pm 5ft 9s 7s 9 11 mph 1013.1mb 82f 80f
5:50pm 5ft 9s 7s 11 13 mph 1013.3mb 81f 80f
4:50pm 5ft 9s 7s 9 11 mph 1014.1mb 81f 80f
3:50pm 5ft 8s 7s 11
mph
1015.2mb 81f 80f
2:50pm 5ft 8s 6s 13 16 mph 1015.7mb 81f 80f
1:50pm 5ft 8s 7s 13 16 mph 1016.5mb 81f 80f
12:50pm 5ft 9s 6s 11 16 mph 1016.7mb 81f 80f
11:50am 5ft 10s 6s 11 16 mph 1016.7mb 81f 80f
10:50am 5ft 8s 6s 11 13 mph 1015.8mb 81f 79f
9:50am 5ft 9s 6s 13 16 mph 1015.2mb 81f 79f
8:50am 5ft 8s 6s 11 13 mph 1014.7mb 81f 79f
7:50am 5.5ft 10s 6s 13 16 mph 1014.3mb 81f 79f
6:50am 5.5ft 9s 6s 11 13 mph 1014.5mb 81f 79f
5:50am 5ft 7s 6s 11 13 mph 1014.8mb 81f 79f
4:50am 5ft 7s 6s 11 13 mph 1015.4mb 81f 80f
3:50am 5ft 7s 6s 11 13 mph 1016.2mb 81f 80f
2:50am 5.5ft 7s 6s 11
mph
1016.6mb 81f 80f
1:50am 5ft 7s 6s 11 13 mph 1017mb 81f 80f
12:50am 5ft 9s 6s 13 16 mph 1016.9mb 81f 80f
Tue 12/16 11:50pm 5ft 8s 6s 13 16 mph 1016.5mb 81f 80f
10:50pm 5ft 7s 6s 11 13 mph 1016.2mb 81f 80f
9:50pm 5ft 9s 6s 11 13 mph 1015.5mb 81f 80f
8:50pm 5ft 7s 6s 11 13 mph 1015mb 81f 80f
7:50pm 5ft 9s 6s 13 16 mph 1014.5mb 81f 80f
6:50pm 5ft 15s 6s 18 22 mph 1014mb 81f 80f
5:50pm 5ft 15s 6s 11 13 mph 1014.3mb 81f 80f
4:50pm 4.5ft 8s 6s 9 13 mph 1015.1mb 81f 78f
3:50pm 5ft 9s 6s 16 18 mph 1015.9mb 81f 77f
2:50pm 5ft 9s 6s 13 16 mph 1016.5mb 81f 80f
1:50pm 5ft 9s 6s 11 13 mph 1016.9mb 81f 80f
11:50am 5ft 15s 6s 11 16 mph 1016.2mb 81f 80f
10:50am 5ft 9s 6s 11 13 mph 1015.6mb 81f 80f
9:50am 5.5ft 9s 7s 13 16 mph 1014.7mb 81f 80f
8:50am 5.5ft 9s 7s 16 18 mph 1014mb 81f 80f
7:50am 5ft 9s 6s 16 18 mph 1013.7mb 81f 80f
6:50am 5ft 15s 6s 13 16 mph 1013.6mb 81f 80f
5:50am 5ft 9s 7s 11 13 mph 1013.9mb 81f 80f
4:50am 5ft 9s 7s 11 13 mph 1014.4mb 81f 80f
3:50am 5.5ft 9s 7s 11 13 mph 1015mb 81f 80f
2:50am 5ft 16s 7s 11 13 mph 1015.3mb 81f 80f
1:50am 5ft 9s 7s 9 11 mph 1015.8mb 81f 80f